sensor_id;sensor_type;location;lat;lon;timestamp;P1;durP1;ratioP1;P2;durP2;ratioP2
58990;SDS011;44781;53.444;14.476;2023-11-21T00:00:17;42.20;;;19.90;;
58990;SDS011;44781;53.444;14.476;2023-11-21T00:03:04;40.60;;;17.90;;
58990;SDS011;44781;53.444;14.476;2023-11-21T00:05:33;37.30;;;18.20;;
58990;SDS011;44781;53.444;14.476;2023-11-21T00:08:00;38.00;;;17.40;;
58990;SDS011;44781;53.444;14.476;2023-11-21T00:10:27;36.40;;;15.10;;
58990;SDS011;44781;53.444;14.476;2023-11-21T00:12:54;29.80;;;13.50;;
58990;SDS011;44781;53.444;14.476;2023-11-21T00:15:21;38.10;;;15.40;;
58990;SDS011;44781;53.444;14.476;2023-11-21T00:17:53;39.40;;;17.30;;
58990;SDS011;44781;53.444;14.476;2023-11-21T00:20:27;38.00;;;17.10;;
58990;SDS011;44781;53.444;14.476;2023-11-21T00:22:54;29.00;;;14.90;;
58990;SDS011;44781;53.444;14.476;2023-11-21T00:25:23;22.50;;;11.70;;
58990;SDS011;44781;53.444;14.476;2023-11-21T00:27:51;20.30;;;10.60;;
58990;SDS011;44781;53.444;14.476;2023-11-21T00:30:18;12.90;;;7.80;;
58990;SDS011;44781;53.444;14.476;2023-11-21T00:32:46;12.50;;;7.10;;
58990;SDS011;44781;53.444;14.476;2023-11-21T00:35:13;10.50;;;6.20;;
58990;SDS011;44781;53.444;14.476;2023-11-21T00:37:40;11.10;;;6.40;;
58990;SDS011;44781;53.444;14.476;2023-11-21T00:40:09;10.20;;;6.30;;
58990;SDS011;44781;53.444;14.476;2023-11-21T00:42:36;10.20;;;6.50;;
58990;SDS011;44781;53.444;14.476;2023-11-21T00:45:03;9.60;;;6.00;;
58990;SDS011;44781;53.444;14.476;2023-11-21T00:47:31;10.70;;;6.40;;
58990;SDS011;44781;53.444;14.476;2023-11-21T00:49:58;10.30;;;6.20;;
58990;SDS011;44781;53.444;14.476;2023-11-21T00:52:25;9.80;;;6.30;;
58990;SDS011;44781;53.444;14.476;2023-11-21T00:54:52;10.10;;;5.70;;
58990;SDS011;44781;53.444;14.476;2023-11-21T00:57:19;10.50;;;6.40;;
58990;SDS011;44781;53.444;14.476;2023-11-21T00:59:46;10.40;;;6.20;;
58990;SDS011;44781;53.444;14.476;2023-11-21T01:02:13;9.60;;;6.30;;
58990;SDS011;44781;53.444;14.476;2023-11-21T01:04:42;9.10;;;5.60;;
58990;SDS011;44781;53.444;14.476;2023-11-21T01:07:10;10.70;;;6.20;;
58990;SDS011;44781;53.444;14.476;2023-11-21T01:09:38;10.10;;;6.00;;
58990;SDS011;44781;53.444;14.476;2023-11-21T01:12:05;10.20;;;6.60;;
58990;SDS011;44781;53.444;14.476;2023-11-21T01:14:34;9.10;;;5.60;;
58990;SDS011;44781;53.444;14.476;2023-11-21T01:17:02;8.90;;;5.20;;
58990;SDS011;44781;53.444;14.476;2023-11-21T01:19:31;7.90;;;4.70;;
58990;SDS011;44781;53.444;14.476;2023-11-21T01:21:58;8.70;;;5.30;;
58990;SDS011;44781;53.444;14.476;2023-11-21T01:24:25;9.00;;;4.90;;
58990;SDS011;44781;53.444;14.476;2023-11-21T01:26:52;9.30;;;5.40;;
58990;SDS011;44781;53.444;14.476;2023-11-21T01:29:19;10.40;;;6.20;;
58990;SDS011;44781;53.444;14.476;2023-11-21T01:31:46;11.00;;;6.50;;
58990;SDS011;44781;53.444;14.476;2023-11-21T01:34:13;9.60;;;6.30;;
58990;SDS011;44781;53.444;14.476;2023-11-21T01:36:40;10.50;;;6.20;;
58990;SDS011;44781;53.444;14.476;2023-11-21T01:39:07;9.40;;;5.20;;
58990;SDS011;44781;53.444;14.476;2023-11-21T01:41:37;9.50;;;5.60;;
58990;SDS011;44781;53.444;14.476;2023-11-21T01:44:04;9.90;;;6.20;;
58990;SDS011;44781;53.444;14.476;2023-11-21T01:46:34;9.20;;;5.60;;
58990;SDS011;44781;53.444;14.476;2023-11-21T01:49:02;9.20;;;5.50;;
58990;SDS011;44781;53.444;14.476;2023-11-21T01:51:30;9.70;;;5.80;;
58990;SDS011;44781;53.444;14.476;2023-11-21T01:53:58;9.10;;;5.70;;
58990;SDS011;44781;53.444;14.476;2023-11-21T01:56:26;9.20;;;5.30;;
58990;SDS011;44781;53.444;14.476;2023-11-21T01:58:53;9.30;;;5.70;;
58990;SDS011;44781;53.444;14.476;2023-11-21T02:01:25;7.80;;;4.90;;
58990;SDS011;44781;53.444;14.476;2023-11-21T02:03:53;8.70;;;5.00;;
58990;SDS011;44781;53.444;14.476;2023-11-21T02:06:20;8.10;;;5.10;;
58990;SDS011;44781;53.444;14.476;2023-11-21T02:08:48;8.50;;;5.00;;
58990;SDS011;44781;53.444;14.476;2023-11-21T02:11:16;8.20;;;4.60;;
58990;SDS011;44781;53.444;14.476;2023-11-21T02:13:47;7.30;;;4.30;;
58990;SDS011;44781;53.444;14.476;2023-11-21T02:16:16;8.10;;;4.70;;
58990;SDS011;44781;53.444;14.476;2023-11-21T02:18:43;7.40;;;4.50;;
58990;SDS011;44781;53.444;14.476;2023-11-21T02:21:10;7.20;;;4.00;;
58990;SDS011;44781;53.444;14.476;2023-11-21T02:23:37;7.50;;;4.00;;
58990;SDS011;44781;53.444;14.476;2023-11-21T02:26:08;7.40;;;4.20;;
58990;SDS011;44781;53.444;14.476;2023-11-21T02:28:36;7.70;;;4.10;;
58990;SDS011;44781;53.444;14.476;2023-11-21T02:31:05;7.60;;;4.00;;
58990;SDS011;44781;53.444;14.476;2023-11-21T02:33:34;8.10;;;4.50;;
58990;SDS011;44781;53.444;14.476;2023-11-21T02:36:01;6.80;;;3.70;;
58990;SDS011;44781;53.444;14.476;2023-11-21T02:38:29;6.50;;;3.60;;
58990;SDS011;44781;53.444;14.476;2023-11-21T02:40:57;7.00;;;4.20;;
58990;SDS011;44781;53.444;14.476;2023-11-21T02:43:25;6.50;;;4.10;;
58990;SDS011;44781;53.444;14.476;2023-11-21T02:45:52;7.90;;;4.10;;
58990;SDS011;44781;53.444;14.476;2023-11-21T02:48:19;7.10;;;3.70;;
58990;SDS011;44781;53.444;14.476;2023-11-21T02:50:46;6.80;;;4.00;;
58990;SDS011;44781;53.444;14.476;2023-11-21T02:53:14;7.70;;;4.30;;
58990;SDS011;44781;53.444;14.476;2023-11-21T02:55:42;8.30;;;4.30;;
58990;SDS011;44781;53.444;14.476;2023-11-21T02:58:09;7.00;;;4.00;;
58990;SDS011;44781;53.444;14.476;2023-11-21T03:00:36;6.90;;;4.10;;
58990;SDS011;44781;53.444;14.476;2023-11-21T03:03:03;8.40;;;4.40;;
58990;SDS011;44781;53.444;14.476;2023-11-21T03:05:31;7.40;;;4.30;;
58990;SDS011;44781;53.444;14.476;2023-11-21T03:07:58;8.00;;;4.60;;
58990;SDS011;44781;53.444;14.476;2023-11-21T03:10:26;7.40;;;4.40;;
58990;SDS011;44781;53.444;14.476;2023-11-21T03:12:53;7.10;;;4.60;;
58990;SDS011;44781;53.444;14.476;2023-11-21T03:15:20;7.60;;;4.10;;
58990;SDS011;44781;53.444;14.476;2023-11-21T03:17:47;7.40;;;4.60;;
58990;SDS011;44781;53.444;14.476;2023-11-21T03:20:15;7.10;;;4.40;;
58990;SDS011;44781;53.444;14.476;2023-11-21T03:22:45;7.90;;;4.50;;
58990;SDS011;44781;53.444;14.476;2023-11-21T03:25:11;7.20;;;4.30;;
58990;SDS011;44781;53.444;14.476;2023-11-21T03:27:40;7.40;;;4.10;;
58990;SDS011;44781;53.444;14.476;2023-11-21T03:30:08;7.00;;;4.50;;
58990;SDS011;44781;53.444;14.476;2023-11-21T03:32:35;7.80;;;4.60;;
58990;SDS011;44781;53.444;14.476;2023-11-21T03:35:02;7.60;;;4.60;;
58990;SDS011;44781;53.444;14.476;2023-11-21T03:37:30;8.50;;;4.50;;
58990;SDS011;44781;53.444;14.476;2023-11-21T03:39:57;8.50;;;4.50;;
58990;SDS011;44781;53.444;14.476;2023-11-21T03:42:24;7.70;;;4.30;;
58990;SDS011;44781;53.444;14.476;2023-11-21T03:44:54;7.20;;;4.10;;
58990;SDS011;44781;53.444;14.476;2023-11-21T03:47:21;7.20;;;4.10;;
58990;SDS011;44781;53.444;14.476;2023-11-21T03:49:48;7.30;;;3.80;;
58990;SDS011;44781;53.444;14.476;2023-11-21T03:52:16;7.60;;;4.00;;
58990;SDS011;44781;53.444;14.476;2023-11-21T03:54:43;7.20;;;4.30;;
58990;SDS011;44781;53.444;14.476;2023-11-21T03:57:10;7.60;;;3.90;;
58990;SDS011;44781;53.444;14.476;2023-11-21T03:59:41;7.30;;;4.30;;
58990;SDS011;44781;53.444;14.476;2023-11-21T04:02:09;8.40;;;4.00;;
58990;SDS011;44781;53.444;14.476;2023-11-21T04:04:36;8.30;;;4.10;;
58990;SDS011;44781;53.444;14.476;2023-11-21T04:07:03;6.50;;;3.80;;
58990;SDS011;44781;53.444;14.476;2023-11-21T04:09:30;6.70;;;3.70;;
58990;SDS011;44781;53.444;14.476;2023-11-21T04:11:57;7.70;;;3.80;;
58990;SDS011;44781;53.444;14.476;2023-11-21T04:14:24;7.50;;;4.20;;
58990;SDS011;44781;53.444;14.476;2023-11-21T04:16:51;7.70;;;4.30;;
58990;SDS011;44781;53.444;14.476;2023-11-21T04:19:20;7.30;;;4.00;;
58990;SDS011;44781;53.444;14.476;2023-11-21T04:21:47;7.80;;;4.00;;
58990;SDS011;44781;53.444;14.476;2023-11-21T04:24:14;8.10;;;4.20;;
58990;SDS011;44781;53.444;14.476;2023-11-21T04:26:41;7.20;;;3.70;;
58990;SDS011;44781;53.444;14.476;2023-11-21T04:29:08;6.70;;;3.60;;
58990;SDS011;44781;53.444;14.476;2023-11-21T04:31:35;6.00;;;3.30;;
58990;SDS011;44781;53.444;14.476;2023-11-21T04:34:02;8.40;;;3.90;;
58990;SDS011;44781;53.444;14.476;2023-11-21T04:36:30;6.10;;;3.60;;
58990;SDS011;44781;53.444;14.476;2023-11-21T04:38:57;7.50;;;3.80;;
58990;SDS011;44781;53.444;14.476;2023-11-21T04:41:25;6.10;;;3.50;;
58990;SDS011;44781;53.444;14.476;2023-11-21T04:43:52;6.70;;;3.60;;
58990;SDS011;44781;53.444;14.476;2023-11-21T04:46:19;5.60;;;2.90;;
58990;SDS011;44781;53.444;14.476;2023-11-21T04:48:46;7.00;;;3.70;;
58990;SDS011;44781;53.444;14.476;2023-11-21T04:51:13;7.30;;;3.60;;
58990;SDS011;44781;53.444;14.476;2023-11-21T04:53:40;6.20;;;3.50;;
58990;SDS011;44781;53.444;14.476;2023-11-21T04:56:09;7.60;;;3.70;;
58990;SDS011;44781;53.444;14.476;2023-11-21T04:58:36;5.40;;;3.10;;
58990;SDS011;44781;53.444;14.476;2023-11-21T05:01:03;5.70;;;3.10;;
58990;SDS011;44781;53.444;14.476;2023-11-21T05:03:30;5.40;;;2.80;;
58990;SDS011;44781;53.444;14.476;2023-11-21T05:05:59;7.40;;;3.60;;
58990;SDS011;44781;53.444;14.476;2023-11-21T05:08:26;6.50;;;3.70;;
58990;SDS011;44781;53.444;14.476;2023-11-21T05:10:54;6.20;;;3.50;;
58990;SDS011;44781;53.444;14.476;2023-11-21T05:13:20;6.20;;;3.00;;
58990;SDS011;44781;53.444;14.476;2023-11-21T05:15:49;6.20;;;3.10;;
58990;SDS011;44781;53.444;14.476;2023-11-21T05:18:16;5.10;;;2.80;;
58990;SDS011;44781;53.444;14.476;2023-11-21T05:20:43;6.10;;;3.30;;
58990;SDS011;44781;53.444;14.476;2023-11-21T05:23:10;6.00;;;3.20;;
58990;SDS011;44781;53.444;14.476;2023-11-21T05:25:37;5.50;;;3.30;;
58990;SDS011;44781;53.444;14.476;2023-11-21T05:28:04;6.70;;;3.60;;
58990;SDS011;44781;53.444;14.476;2023-11-21T05:30:30;6.00;;;3.50;;
58990;SDS011;44781;53.444;14.476;2023-11-21T05:32:57;6.20;;;3.40;;
58990;SDS011;44781;53.444;14.476;2023-11-21T05:35:24;7.00;;;3.70;;
58990;SDS011;44781;53.444;14.476;2023-11-21T05:37:51;7.70;;;3.90;;
58990;SDS011;44781;53.444;14.476;2023-11-21T05:40:18;7.00;;;4.00;;
58990;SDS011;44781;53.444;14.476;2023-11-21T05:42:45;7.70;;;3.90;;
58990;SDS011;44781;53.444;14.476;2023-11-21T05:45:12;7.40;;;4.20;;
58990;SDS011;44781;53.444;14.476;2023-11-21T05:47:40;8.20;;;4.70;;
58990;SDS011;44781;53.444;14.476;2023-11-21T05:50:09;7.50;;;4.30;;
58990;SDS011;44781;53.444;14.476;2023-11-21T05:52:38;7.60;;;4.40;;
58990;SDS011;44781;53.444;14.476;2023-11-21T05:55:08;7.60;;;4.60;;
58990;SDS011;44781;53.444;14.476;2023-11-21T05:57:39;9.50;;;4.80;;
58990;SDS011;44781;53.444;14.476;2023-11-21T06:00:11;8.10;;;4.60;;
58990;SDS011;44781;53.444;14.476;2023-11-21T06:02:48;8.10;;;4.60;;
58990;SDS011;44781;53.444;14.476;2023-11-21T06:05:22;8.20;;;4.80;;
58990;SDS011;44781;53.444;14.476;2023-11-21T06:07:54;7.70;;;4.40;;
58990;SDS011;44781;53.444;14.476;2023-11-21T06:10:25;9.40;;;5.00;;
58990;SDS011;44781;53.444;14.476;2023-11-21T06:12:52;7.80;;;4.30;;
58990;SDS011;44781;53.444;14.476;2023-11-21T06:15:20;8.10;;;4.90;;
58990;SDS011;44781;53.444;14.476;2023-11-21T06:17:49;8.00;;;4.60;;
58990;SDS011;44781;53.444;14.476;2023-11-21T06:20:21;7.70;;;4.50;;
58990;SDS011;44781;53.444;14.476;2023-11-21T06:22:49;7.80;;;4.40;;
58990;SDS011;44781;53.444;14.476;2023-11-21T06:25:16;8.40;;;4.70;;
58990;SDS011;44781;53.444;14.476;2023-11-21T06:27:44;8.60;;;4.80;;
58990;SDS011;44781;53.444;14.476;2023-11-21T06:30:13;8.10;;;4.50;;
58990;SDS011;44781;53.444;14.476;2023-11-21T06:32:42;8.40;;;5.50;;
58990;SDS011;44781;53.444;14.476;2023-11-21T06:37:39;8.90;;;5.20;;
58990;SDS011;44781;53.444;14.476;2023-11-21T06:40:07;8.80;;;5.10;;
58990;SDS011;44781;53.444;14.476;2023-11-21T06:42:36;9.00;;;5.10;;
58990;SDS011;44781;53.444;14.476;2023-11-21T06:45:05;8.30;;;5.30;;
58990;SDS011;44781;53.444;14.476;2023-11-21T06:47:32;9.00;;;6.00;;
58990;SDS011;44781;53.444;14.476;2023-11-21T06:49:59;8.20;;;5.30;;
58990;SDS011;44781;53.444;14.476;2023-11-21T06:52:27;9.00;;;5.30;;
58990;SDS011;44781;53.444;14.476;2023-11-21T06:54:54;9.50;;;5.40;;
58990;SDS011;44781;53.444;14.476;2023-11-21T06:57:22;7.90;;;5.20;;
58990;SDS011;44781;53.444;14.476;2023-11-21T06:59:50;9.40;;;5.50;;
58990;SDS011;44781;53.444;14.476;2023-11-21T07:02:17;7.10;;;4.40;;
58990;SDS011;44781;53.444;14.476;2023-11-21T07:04:47;8.60;;;5.00;;
58990;SDS011;44781;53.444;14.476;2023-11-21T07:07:16;8.60;;;5.00;;
58990;SDS011;44781;53.444;14.476;2023-11-21T07:09:44;10.10;;;6.10;;
58990;SDS011;44781;53.444;14.476;2023-11-21T07:12:11;9.60;;;5.60;;
58990;SDS011;44781;53.444;14.476;2023-11-21T07:14:38;10.50;;;5.40;;
58990;SDS011;44781;53.444;14.476;2023-11-21T07:17:07;9.20;;;5.50;;
58990;SDS011;44781;53.444;14.476;2023-11-21T07:19:37;9.20;;;6.00;;
58990;SDS011;44781;53.444;14.476;2023-11-21T07:22:04;10.30;;;6.10;;
58990;SDS011;44781;53.444;14.476;2023-11-21T07:24:32;9.40;;;5.60;;
58990;SDS011;44781;53.444;14.476;2023-11-21T07:26:59;10.30;;;5.80;;
58990;SDS011;44781;53.444;14.476;2023-11-21T07:29:27;11.00;;;6.90;;
58990;SDS011;44781;53.444;14.476;2023-11-21T07:31:56;10.10;;;6.30;;
58990;SDS011;44781;53.444;14.476;2023-11-21T07:34:23;11.90;;;7.40;;
58990;SDS011;44781;53.444;14.476;2023-11-21T07:36:50;11.40;;;6.20;;
58990;SDS011;44781;53.444;14.476;2023-11-21T07:39:17;8.60;;;5.70;;
58990;SDS011;44781;53.444;14.476;2023-11-21T07:41:44;9.40;;;5.60;;
58990;SDS011;44781;53.444;14.476;2023-11-21T07:44:15;11.50;;;6.40;;
58990;SDS011;44781;53.444;14.476;2023-11-21T07:46:43;11.30;;;6.60;;
58990;SDS011;44781;53.444;14.476;2023-11-21T07:49:11;11.30;;;6.70;;
58990;SDS011;44781;53.444;14.476;2023-11-21T07:51:43;10.40;;;6.80;;
58990;SDS011;44781;53.444;14.476;2023-11-21T07:54:13;11.30;;;7.00;;
58990;SDS011;44781;53.444;14.476;2023-11-21T07:56:40;10.70;;;6.70;;
58990;SDS011;44781;53.444;14.476;2023-11-21T07:59:11;9.90;;;6.20;;
58990;SDS011;44781;53.444;14.476;2023-11-21T08:01:38;11.40;;;7.30;;
58990;SDS011;44781;53.444;14.476;2023-11-21T08:04:07;11.60;;;7.40;;
58990;SDS011;44781;53.444;14.476;2023-11-21T08:06:34;12.50;;;8.10;;
58990;SDS011;44781;53.444;14.476;2023-11-21T08:09:02;13.40;;;8.50;;
58990;SDS011;44781;53.444;14.476;2023-11-21T08:11:29;15.50;;;9.80;;
58990;SDS011;44781;53.444;14.476;2023-11-21T08:13:56;14.80;;;9.60;;
58990;SDS011;44781;53.444;14.476;2023-11-21T08:16:24;17.10;;;10.90;;
58990;SDS011;44781;53.444;14.476;2023-11-21T08:18:51;16.30;;;10.90;;
58990;SDS011;44781;53.444;14.476;2023-11-21T08:21:18;16.90;;;11.00;;
58990;SDS011;44781;53.444;14.476;2023-11-21T08:23:45;17.80;;;11.60;;
58990;SDS011;44781;53.444;14.476;2023-11-21T08:26:15;18.30;;;11.70;;
58990;SDS011;44781;53.444;14.476;2023-11-21T08:28:48;19.10;;;11.70;;
58990;SDS011;44781;53.444;14.476;2023-11-21T08:31:17;19.40;;;11.90;;
58990;SDS011;44781;53.444;14.476;2023-11-21T08:33:49;19.20;;;12.30;;
58990;SDS011;44781;53.444;14.476;2023-11-21T08:36:16;19.50;;;12.20;;
58990;SDS011;44781;53.444;14.476;2023-11-21T08:38:43;16.60;;;10.60;;
58990;SDS011;44781;53.444;14.476;2023-11-21T08:41:11;18.80;;;12.10;;
58990;SDS011;44781;53.444;14.476;2023-11-21T08:43:39;18.40;;;10.90;;
58990;SDS011;44781;53.444;14.476;2023-11-21T08:46:06;16.90;;;11.10;;
58990;SDS011;44781;53.444;14.476;2023-11-21T08:48:36;19.80;;;12.00;;
58990;SDS011;44781;53.444;14.476;2023-11-21T08:51:03;19.80;;;12.80;;
58990;SDS011;44781;53.444;14.476;2023-11-21T08:53:31;18.10;;;11.90;;
58990;SDS011;44781;53.444;14.476;2023-11-21T08:55:59;19.20;;;12.40;;
58990;SDS011;44781;53.444;14.476;2023-11-21T08:58:27;18.50;;;13.00;;
58990;SDS011;44781;53.444;14.476;2023-11-21T09:00:54;18.80;;;12.70;;
58990;SDS011;44781;53.444;14.476;2023-11-21T09:03:20;19.30;;;12.10;;
58990;SDS011;44781;53.444;14.476;2023-11-21T09:05:48;19.30;;;13.30;;
58990;SDS011;44781;53.444;14.476;2023-11-21T09:08:15;18.30;;;12.50;;
58990;SDS011;44781;53.444;14.476;2023-11-21T09:10:42;19.90;;;12.50;;
58990;SDS011;44781;53.444;14.476;2023-11-21T09:13:11;20.80;;;13.10;;
58990;SDS011;44781;53.444;14.476;2023-11-21T09:15:39;17.70;;;12.30;;
58990;SDS011;44781;53.444;14.476;2023-11-21T09:18:06;19.70;;;12.80;;
58990;SDS011;44781;53.444;14.476;2023-11-21T09:20:33;15.40;;;10.60;;
58990;SDS011;44781;53.444;14.476;2023-11-21T09:23:00;15.90;;;10.60;;
58990;SDS011;44781;53.444;14.476;2023-11-21T09:25:27;14.70;;;10.00;;
58990;SDS011;44781;53.444;14.476;2023-11-21T09:27:55;17.50;;;10.70;;
58990;SDS011;44781;53.444;14.476;2023-11-21T09:30:24;18.90;;;12.00;;
58990;SDS011;44781;53.444;14.476;2023-11-21T09:32:51;18.90;;;12.00;;
58990;SDS011;44781;53.444;14.476;2023-11-21T09:35:18;17.20;;;11.80;;
58990;SDS011;44781;53.444;14.476;2023-11-21T09:37:50;17.70;;;11.50;;
58990;SDS011;44781;53.444;14.476;2023-11-21T09:40:21;16.40;;;11.30;;
58990;SDS011;44781;53.444;14.476;2023-11-21T09:42:53;18.70;;;11.80;;
58990;SDS011;44781;53.444;14.476;2023-11-21T09:47:53;16.90;;;10.60;;
58990;SDS011;44781;53.444;14.476;2023-11-21T09:50:24;15.70;;;9.80;;
58990;SDS011;44781;53.444;14.476;2023-11-21T09:53:03;15.60;;;10.00;;
58990;SDS011;44781;53.444;14.476;2023-11-21T09:55:34;15.20;;;9.60;;
58990;SDS011;44781;53.444;14.476;2023-11-21T09:58:05;16.10;;;9.70;;
58990;SDS011;44781;53.444;14.476;2023-11-21T10:00:39;14.00;;;10.10;;
58990;SDS011;44781;53.444;14.476;2023-11-21T10:03:11;13.80;;;9.60;;
58990;SDS011;44781;53.444;14.476;2023-11-21T10:05:39;12.40;;;8.00;;
58990;SDS011;44781;53.444;14.476;2023-11-21T10:08:09;13.60;;;9.50;;
58990;SDS011;44781;53.444;14.476;2023-11-21T10:10:37;13.70;;;9.50;;
58990;SDS011;44781;53.444;14.476;2023-11-21T10:13:11;14.20;;;9.60;;
58990;SDS011;44781;53.444;14.476;2023-11-21T10:15:39;13.90;;;9.50;;
58990;SDS011;44781;53.444;14.476;2023-11-21T10:18:11;16.10;;;9.70;;
58990;SDS011;44781;53.444;14.476;2023-11-21T10:20:41;14.40;;;9.10;;
58990;SDS011;44781;53.444;14.476;2023-11-21T10:23:12;12.50;;;8.60;;
58990;SDS011;44781;53.444;14.476;2023-11-21T10:25:42;12.50;;;8.10;;
58990;SDS011;44781;53.444;14.476;2023-11-21T10:28:09;13.40;;;8.50;;
58990;SDS011;44781;53.444;14.476;2023-11-21T10:30:37;12.90;;;8.50;;
58990;SDS011;44781;53.444;14.476;2023-11-21T10:33:06;12.20;;;8.20;;
58990;SDS011;44781;53.444;14.476;2023-11-21T10:35:48;14.20;;;8.40;;
58990;SDS011;44781;53.444;14.476;2023-11-21T10:38:17;12.40;;;7.90;;
58990;SDS011;44781;53.444;14.476;2023-11-21T10:40:44;13.40;;;8.80;;
58990;SDS011;44781;53.444;14.476;2023-11-21T10:45:43;13.60;;;8.20;;
58990;SDS011;44781;53.444;14.476;2023-11-21T10:48:13;14.00;;;8.80;;
58990;SDS011;44781;53.444;14.476;2023-11-21T10:50:45;17.10;;;9.50;;
58990;SDS011;44781;53.444;14.476;2023-11-21T10:53:13;16.00;;;9.20;;
58990;SDS011;44781;53.444;14.476;2023-11-21T10:55:40;15.40;;;8.80;;
58990;SDS011;44781;53.444;14.476;2023-11-21T10:58:07;13.00;;;8.40;;
58990;SDS011;44781;53.444;14.476;2023-11-21T11:00:37;14.30;;;8.30;;
58990;SDS011;44781;53.444;14.476;2023-11-21T11:03:06;12.90;;;8.50;;
58990;SDS011;44781;53.444;14.476;2023-11-21T11:05:40;15.00;;;8.30;;
58990;SDS011;44781;53.444;14.476;2023-11-21T11:08:15;14.30;;;8.10;;
58990;SDS011;44781;53.444;14.476;2023-11-21T11:10:45;12.20;;;7.20;;
58990;SDS011;44781;53.444;14.476;2023-11-21T11:13:16;13.30;;;8.10;;
58990;SDS011;44781;53.444;14.476;2023-11-21T11:15:57;11.30;;;7.30;;
58990;SDS011;44781;53.444;14.476;2023-11-21T11:18:37;13.10;;;7.70;;
58990;SDS011;44781;53.444;14.476;2023-11-21T11:21:49;12.70;;;8.00;;
58990;SDS011;44781;53.444;14.476;2023-11-21T11:26:57;15.50;;;8.60;;
58990;SDS011;44781;53.444;14.476;2023-11-21T11:29:46;13.60;;;8.30;;
58990;SDS011;44781;53.444;14.476;2023-11-21T11:35:01;11.20;;;7.30;;
58990;SDS011;44781;53.444;14.476;2023-11-21T11:37:34;13.30;;;8.60;;
58990;SDS011;44781;53.444;14.476;2023-11-21T11:40:01;13.10;;;7.90;;
58990;SDS011;44781;53.444;14.476;2023-11-21T11:42:33;12.80;;;7.60;;
58990;SDS011;44781;53.444;14.476;2023-11-21T11:45:00;11.50;;;7.50;;
58990;SDS011;44781;53.444;14.476;2023-11-21T11:52:36;13.80;;;7.30;;
58990;SDS011;44781;53.444;14.476;2023-11-21T11:55:06;12.90;;;8.00;;
58990;SDS011;44781;53.444;14.476;2023-11-21T11:57:45;12.50;;;7.60;;
58990;SDS011;44781;53.444;14.476;2023-11-21T12:00:19;14.10;;;7.70;;
58990;SDS011;44781;53.444;14.476;2023-11-21T12:02:52;13.00;;;7.60;;
58990;SDS011;44781;53.444;14.476;2023-11-21T12:05:23;11.30;;;7.20;;
58990;SDS011;44781;53.444;14.476;2023-11-21T12:08:03;11.70;;;7.40;;
58990;SDS011;44781;53.444;14.476;2023-11-21T12:10:32;11.60;;;6.60;;
58990;SDS011;44781;53.444;14.476;2023-11-21T12:13:11;11.60;;;7.30;;
58990;SDS011;44781;53.444;14.476;2023-11-21T12:15:44;13.20;;;7.70;;
58990;SDS011;44781;53.444;14.476;2023-11-21T12:18:13;13.90;;;8.20;;
58990;SDS011;44781;53.444;14.476;2023-11-21T12:20:43;11.80;;;7.50;;
58990;SDS011;44781;53.444;14.476;2023-11-21T12:23:15;14.50;;;8.60;;
58990;SDS011;44781;53.444;14.476;2023-11-21T12:25:44;12.90;;;7.60;;
58990;SDS011;44781;53.444;14.476;2023-11-21T12:28:11;11.60;;;7.80;;
58990;SDS011;44781;53.444;14.476;2023-11-21T12:30:38;12.70;;;7.80;;
58990;SDS011;44781;53.444;14.476;2023-11-21T12:33:07;11.20;;;7.20;;
58990;SDS011;44781;53.444;14.476;2023-11-21T12:35:35;12.20;;;7.00;;
58990;SDS011;44781;53.444;14.476;2023-11-21T12:38:03;12.20;;;7.70;;
58990;SDS011;44781;53.444;14.476;2023-11-21T12:40:31;11.60;;;7.00;;
58990;SDS011;44781;53.444;14.476;2023-11-21T12:42:59;12.90;;;7.10;;
58990;SDS011;44781;53.444;14.476;2023-11-21T12:45:28;10.90;;;6.80;;
58990;SDS011;44781;53.444;14.476;2023-11-21T12:48:06;12.70;;;7.10;;
58990;SDS011;44781;53.444;14.476;2023-11-21T12:50:34;12.00;;;7.00;;
58990;SDS011;44781;53.444;14.476;2023-11-21T12:53:06;11.70;;;7.30;;
58990;SDS011;44781;53.444;14.476;2023-11-21T12:55:39;10.80;;;6.70;;
58990;SDS011;44781;53.444;14.476;2023-11-21T12:58:08;11.00;;;6.90;;
58990;SDS011;44781;53.444;14.476;2023-11-21T13:00:38;12.60;;;7.90;;
58990;SDS011;44781;53.444;14.476;2023-11-21T13:03:09;12.50;;;7.70;;
58990;SDS011;44781;53.444;14.476;2023-11-21T13:05:39;12.50;;;7.20;;
58990;SDS011;44781;53.444;14.476;2023-11-21T13:08:11;12.00;;;7.20;;
58990;SDS011;44781;53.444;14.476;2023-11-21T13:10:40;12.60;;;6.50;;
58990;SDS011;44781;53.444;14.476;2023-11-21T13:13:10;11.40;;;7.40;;
58990;SDS011;44781;53.444;14.476;2023-11-21T13:15:54;11.30;;;6.70;;
58990;SDS011;44781;53.444;14.476;2023-11-21T13:18:23;10.90;;;6.50;;
58990;SDS011;44781;53.444;14.476;2023-11-21T13:20:52;12.90;;;7.10;;
58990;SDS011;44781;53.444;14.476;2023-11-21T13:23:21;14.00;;;7.80;;
58990;SDS011;44781;53.444;14.476;2023-11-21T13:25:49;11.20;;;6.70;;
58990;SDS011;44781;53.444;14.476;2023-11-21T13:28:17;10.90;;;7.30;;
58990;SDS011;44781;53.444;14.476;2023-11-21T13:30:48;14.10;;;7.70;;
58990;SDS011;44781;53.444;14.476;2023-11-21T13:33:18;12.40;;;7.60;;
58990;SDS011;44781;53.444;14.476;2023-11-21T13:35:48;12.10;;;6.80;;
58990;SDS011;44781;53.444;14.476;2023-11-21T13:38:22;12.10;;;6.70;;
58990;SDS011;44781;53.444;14.476;2023-11-21T13:40:50;12.40;;;7.00;;
58990;SDS011;44781;53.444;14.476;2023-11-21T13:43:22;11.50;;;6.90;;
58990;SDS011;44781;53.444;14.476;2023-11-21T13:45:52;10.80;;;6.90;;
58990;SDS011;44781;53.444;14.476;2023-11-21T13:48:45;12.80;;;7.10;;
58990;SDS011;44781;53.444;14.476;2023-11-21T13:51:22;11.50;;;7.20;;
58990;SDS011;44781;53.444;14.476;2023-11-21T13:53:58;12.40;;;7.50;;
58990;SDS011;44781;53.444;14.476;2023-11-21T13:56:25;12.20;;;7.20;;
58990;SDS011;44781;53.444;14.476;2023-11-21T13:58:57;11.30;;;6.90;;
58990;SDS011;44781;53.444;14.476;2023-11-21T14:01:33;11.70;;;7.30;;
58990;SDS011;44781;53.444;14.476;2023-11-21T14:04:22;13.80;;;7.30;;
58990;SDS011;44781;53.444;14.476;2023-11-21T14:07:23;13.70;;;7.60;;
58990;SDS011;44781;53.444;14.476;2023-11-21T14:10:15;15.20;;;8.20;;
58990;SDS011;44781;53.444;14.476;2023-11-21T14:12:48;14.80;;;8.70;;
58990;SDS011;44781;53.444;14.476;2023-11-21T14:15:16;14.90;;;8.70;;
58990;SDS011;44781;53.444;14.476;2023-11-21T14:17:45;12.70;;;7.10;;
58990;SDS011;44781;53.444;14.476;2023-11-21T14:20:12;11.40;;;6.90;;
58990;SDS011;44781;53.444;14.476;2023-11-21T14:22:43;13.20;;;7.70;;
58990;SDS011;44781;53.444;14.476;2023-11-21T14:25:16;12.60;;;7.50;;
58990;SDS011;44781;53.444;14.476;2023-11-21T14:27:44;13.80;;;6.90;;
58990;SDS011;44781;53.444;14.476;2023-11-21T14:30:11;10.60;;;6.80;;
58990;SDS011;44781;53.444;14.476;2023-11-21T14:32:40;11.90;;;7.20;;
58990;SDS011;44781;53.444;14.476;2023-11-21T14:35:07;61.40;;;42.50;;
58990;SDS011;44781;53.444;14.476;2023-11-21T14:37:35;13.50;;;7.80;;
58990;SDS011;44781;53.444;14.476;2023-11-21T14:40:02;11.80;;;7.30;;
58990;SDS011;44781;53.444;14.476;2023-11-21T14:42:31;11.30;;;7.10;;
58990;SDS011;44781;53.444;14.476;2023-11-21T14:45:00;12.50;;;7.30;;
58990;SDS011;44781;53.444;14.476;2023-11-21T14:47:31;14.10;;;7.40;;
58990;SDS011;44781;53.444;14.476;2023-11-21T14:49:59;11.30;;;7.50;;
58990;SDS011;44781;53.444;14.476;2023-11-21T14:52:33;12.20;;;6.60;;
58990;SDS011;44781;53.444;14.476;2023-11-21T14:55:01;11.00;;;6.50;;